Terminal Aerodrome Forecast
Issued by NWS La Crosse, WI

Home | Current Version | Previous Version | Text Only | Print | Product List | Glossary On
Versions: 1 2 3 4 5 6 7 8 9 10 11 12 13 14 15 16 17 18 19 20 21 22 23 24 25 26 27 28 29 30 31 32
000
FTUS43 KARX 291925 AAA
TAFLSE
TAF AMD
KLSE 291925Z 2919/3018 28027G37KT P6SM BKN025
     FM300000 31012KT P6SM BKN025
     FM300200 30012KT P6SM SKC
     FM300500 29005KT P6SM SKC
     FM301400 19006KT P6SM BKN200=

USA.gov is the U.S. government's official web portal to all federal, state and local government web resources and services.